sensor_id;sensor_type;location;lat;lon;timestamp;P1;durP1;ratioP1;P2;durP2;ratioP2
11500;SDS011;5807;51.606;7.624;2022-09-12T00:01:19;26.73;;;15.90;;
11500;SDS011;5807;51.606;7.624;2022-09-12T00:03:49;25.23;;;15.67;;
11500;SDS011;5807;51.606;7.624;2022-09-12T00:06:18;29.13;;;16.67;;
11500;SDS011;5807;51.606;7.624;2022-09-12T00:08:46;28.87;;;16.17;;
11500;SDS011;5807;51.606;7.624;2022-09-12T00:11:13;24.70;;;15.53;;
11500;SDS011;5807;51.606;7.624;2022-09-12T00:13:40;28.67;;;16.50;;
11500;SDS011;5807;51.606;7.624;2022-09-12T00:16:13;21.97;;;15.60;;
11500;SDS011;5807;51.606;7.624;2022-09-12T00:18:40;25.50;;;16.30;;
11500;SDS011;5807;51.606;7.624;2022-09-12T00:21:09;27.47;;;16.33;;
11500;SDS011;5807;51.606;7.624;2022-09-12T00:23:36;24.20;;;15.87;;
11500;SDS011;5807;51.606;7.624;2022-09-12T00:26:03;26.17;;;15.13;;
11500;SDS011;5807;51.606;7.624;2022-09-12T00:28:31;24.27;;;15.60;;
11500;SDS011;5807;51.606;7.624;2022-09-12T00:30:59;25.40;;;14.80;;
11500;SDS011;5807;51.606;7.624;2022-09-12T00:33:28;27.30;;;17.10;;
11500;SDS011;5807;51.606;7.624;2022-09-12T00:35:55;20.33;;;15.23;;
11500;SDS011;5807;51.606;7.624;2022-09-12T00:38:23;23.77;;;15.53;;
11500;SDS011;5807;51.606;7.624;2022-09-12T00:40:50;23.87;;;14.80;;
11500;SDS011;5807;51.606;7.624;2022-09-12T00:43:32;21.70;;;14.43;;
11500;SDS011;5807;51.606;7.624;2022-09-12T00:46:03;19.73;;;14.33;;
11500;SDS011;5807;51.606;7.624;2022-09-12T00:48:36;22.73;;;14.50;;
11500;SDS011;5807;51.606;7.624;2022-09-12T00:51:07;23.10;;;14.00;;
11500;SDS011;5807;51.606;7.624;2022-09-12T00:53:35;26.43;;;15.23;;
11500;SDS011;5807;51.606;7.624;2022-09-12T00:56:03;22.63;;;14.90;;
11500;SDS011;5807;51.606;7.624;2022-09-12T00:58:32;23.10;;;14.93;;
11500;SDS011;5807;51.606;7.624;2022-09-12T01:01:03;23.13;;;14.80;;
11500;SDS011;5807;51.606;7.624;2022-09-12T01:03:30;22.33;;;15.23;;
11500;SDS011;5807;51.606;7.624;2022-09-12T01:05:58;22.57;;;13.93;;
11500;SDS011;5807;51.606;7.624;2022-09-12T01:08:45;24.23;;;15.80;;
11500;SDS011;5807;51.606;7.624;2022-09-12T01:11:13;21.50;;;14.90;;
11500;SDS011;5807;51.606;7.624;2022-09-12T01:13:42;25.77;;;16.00;;
11500;SDS011;5807;51.606;7.624;2022-09-12T01:16:10;23.53;;;15.63;;
11500;SDS011;5807;51.606;7.624;2022-09-12T01:18:40;20.43;;;14.33;;
11500;SDS011;5807;51.606;7.624;2022-09-12T01:21:22;23.70;;;15.30;;
11500;SDS011;5807;51.606;7.624;2022-09-12T01:27:17;25.00;;;15.30;;
11500;SDS011;5807;51.606;7.624;2022-09-12T01:30:19;25.50;;;16.77;;
11500;SDS011;5807;51.606;7.624;2022-09-12T01:32:52;26.07;;;16.10;;
11500;SDS011;5807;51.606;7.624;2022-09-12T01:35:40;27.70;;;16.43;;
11500;SDS011;5807;51.606;7.624;2022-09-12T01:38:21;28.57;;;15.93;;
11500;SDS011;5807;51.606;7.624;2022-09-12T01:40:54;32.43;;;16.87;;
11500;SDS011;5807;51.606;7.624;2022-09-12T01:43:27;30.83;;;17.10;;
11500;SDS011;5807;51.606;7.624;2022-09-12T01:46:02;28.23;;;17.50;;
11500;SDS011;5807;51.606;7.624;2022-09-12T01:48:36;26.83;;;16.37;;
11500;SDS011;5807;51.606;7.624;2022-09-12T01:51:08;23.80;;;15.53;;
11500;SDS011;5807;51.606;7.624;2022-09-12T01:53:40;23.87;;;15.00;;
11500;SDS011;5807;51.606;7.624;2022-09-12T01:56:11;22.23;;;15.90;;
11500;SDS011;5807;51.606;7.624;2022-09-12T01:58:46;24.40;;;16.33;;
11500;SDS011;5807;51.606;7.624;2022-09-12T02:01:19;23.97;;;15.20;;
11500;SDS011;5807;51.606;7.624;2022-09-12T02:03:49;26.33;;;14.63;;
11500;SDS011;5807;51.606;7.624;2022-09-12T02:06:21;23.17;;;15.93;;
11500;SDS011;5807;51.606;7.624;2022-09-12T02:08:51;27.63;;;15.40;;
11500;SDS011;5807;51.606;7.624;2022-09-12T02:11:22;30.20;;;15.17;;
11500;SDS011;5807;51.606;7.624;2022-09-12T02:13:52;26.23;;;15.43;;
11500;SDS011;5807;51.606;7.624;2022-09-12T02:16:24;24.70;;;16.47;;
11500;SDS011;5807;51.606;7.624;2022-09-12T02:18:56;23.67;;;14.37;;
11500;SDS011;5807;51.606;7.624;2022-09-12T02:21:28;20.33;;;14.20;;
11500;SDS011;5807;51.606;7.624;2022-09-12T02:23:57;24.80;;;15.53;;
11500;SDS011;5807;51.606;7.624;2022-09-12T02:26:28;27.90;;;17.00;;
11500;SDS011;5807;51.606;7.624;2022-09-12T02:29:00;26.07;;;15.33;;
11500;SDS011;5807;51.606;7.624;2022-09-12T02:31:31;23.27;;;15.87;;
11500;SDS011;5807;51.606;7.624;2022-09-12T02:34:09;21.27;;;14.40;;
11500;SDS011;5807;51.606;7.624;2022-09-12T02:36:53;23.57;;;15.90;;
11500;SDS011;5807;51.606;7.624;2022-09-12T02:39:27;21.63;;;14.43;;
11500;SDS011;5807;51.606;7.624;2022-09-12T02:41:55;21.57;;;13.97;;
11500;SDS011;5807;51.606;7.624;2022-09-12T02:44:24;23.23;;;15.47;;
11500;SDS011;5807;51.606;7.624;2022-09-12T02:46:55;22.53;;;14.67;;
11500;SDS011;5807;51.606;7.624;2022-09-12T02:49:26;21.80;;;14.27;;
11500;SDS011;5807;51.606;7.624;2022-09-12T02:51:52;26.90;;;15.57;;
11500;SDS011;5807;51.606;7.624;2022-09-12T02:54:20;25.67;;;15.50;;
11500;SDS011;5807;51.606;7.624;2022-09-12T02:56:47;20.80;;;14.63;;
11500;SDS011;5807;51.606;7.624;2022-09-12T02:59:15;23.80;;;16.03;;
11500;SDS011;5807;51.606;7.624;2022-09-12T03:12:08;25.20;;;15.43;;
11500;SDS011;5807;51.606;7.624;2022-09-12T03:14:51;19.63;;;13.80;;
11500;SDS011;5807;51.606;7.624;2022-09-12T03:17:40;23.70;;;15.23;;
11500;SDS011;5807;51.606;7.624;2022-09-12T03:20:24;18.93;;;13.30;;
11500;SDS011;5807;51.606;7.624;2022-09-12T03:23:03;19.23;;;13.80;;
11500;SDS011;5807;51.606;7.624;2022-09-12T03:25:35;22.00;;;13.77;;
11500;SDS011;5807;51.606;7.624;2022-09-12T03:28:07;19.20;;;14.30;;
11500;SDS011;5807;51.606;7.624;2022-09-12T03:30:37;20.53;;;14.23;;
11500;SDS011;5807;51.606;7.624;2022-09-12T03:33:05;20.57;;;14.87;;
11500;SDS011;5807;51.606;7.624;2022-09-12T03:35:32;21.87;;;14.63;;
11500;SDS011;5807;51.606;7.624;2022-09-12T03:37:58;22.00;;;15.10;;
11500;SDS011;5807;51.606;7.624;2022-09-12T03:40:26;26.47;;;15.77;;
11500;SDS011;5807;51.606;7.624;2022-09-12T03:42:52;23.70;;;14.53;;
11500;SDS011;5807;51.606;7.624;2022-09-12T03:45:23;22.17;;;14.77;;
11500;SDS011;5807;51.606;7.624;2022-09-12T03:47:50;21.90;;;14.03;;
11500;SDS011;5807;51.606;7.624;2022-09-12T03:50:17;21.43;;;14.23;;
11500;SDS011;5807;51.606;7.624;2022-09-12T03:52:44;21.40;;;14.17;;
11500;SDS011;5807;51.606;7.624;2022-09-12T03:55:11;22.50;;;15.80;;
11500;SDS011;5807;51.606;7.624;2022-09-12T03:57:38;23.43;;;14.87;;
11500;SDS011;5807;51.606;7.624;2022-09-12T04:00:05;23.83;;;14.00;;
11500;SDS011;5807;51.606;7.624;2022-09-12T04:02:34;20.33;;;14.00;;
11500;SDS011;5807;51.606;7.624;2022-09-12T04:05:01;21.50;;;13.90;;
11500;SDS011;5807;51.606;7.624;2022-09-12T04:07:28;19.67;;;14.53;;
11500;SDS011;5807;51.606;7.624;2022-09-12T04:09:55;20.10;;;14.53;;
11500;SDS011;5807;51.606;7.624;2022-09-12T04:12:22;24.63;;;14.27;;
11500;SDS011;5807;51.606;7.624;2022-09-12T04:14:49;19.73;;;13.27;;
11500;SDS011;5807;51.606;7.624;2022-09-12T04:17:16;21.33;;;13.87;;
11500;SDS011;5807;51.606;7.624;2022-09-12T04:19:44;19.23;;;14.07;;
11500;SDS011;5807;51.606;7.624;2022-09-12T04:22:11;20.33;;;13.33;;
11500;SDS011;5807;51.606;7.624;2022-09-12T04:24:38;21.47;;;14.00;;
11500;SDS011;5807;51.606;7.624;2022-09-12T04:27:05;19.50;;;13.63;;
11500;SDS011;5807;51.606;7.624;2022-09-12T04:29:32;23.77;;;14.03;;
11500;SDS011;5807;51.606;7.624;2022-09-12T04:32:00;20.30;;;13.90;;
11500;SDS011;5807;51.606;7.624;2022-09-12T04:34:29;19.73;;;12.70;;
11500;SDS011;5807;51.606;7.624;2022-09-12T04:36:57;18.77;;;13.47;;
11500;SDS011;5807;51.606;7.624;2022-09-12T04:39:24;19.80;;;12.97;;
11500;SDS011;5807;51.606;7.624;2022-09-12T04:41:51;20.60;;;12.87;;
11500;SDS011;5807;51.606;7.624;2022-09-12T04:44:18;18.60;;;12.93;;
11500;SDS011;5807;51.606;7.624;2022-09-12T04:46:45;18.10;;;12.70;;
11500;SDS011;5807;51.606;7.624;2022-09-12T04:49:12;22.23;;;13.13;;
11500;SDS011;5807;51.606;7.624;2022-09-12T04:51:43;19.50;;;12.57;;
11500;SDS011;5807;51.606;7.624;2022-09-12T04:54:12;18.93;;;13.30;;
11500;SDS011;5807;51.606;7.624;2022-09-12T04:56:42;18.27;;;12.67;;
11500;SDS011;5807;51.606;7.624;2022-09-12T04:59:11;18.23;;;11.47;;
11500;SDS011;5807;51.606;7.624;2022-09-12T05:01:39;17.90;;;13.17;;
11500;SDS011;5807;51.606;7.624;2022-09-12T05:04:08;16.97;;;11.77;;
11500;SDS011;5807;51.606;7.624;2022-09-12T05:06:35;23.80;;;12.73;;
11500;SDS011;5807;51.606;7.624;2022-09-12T05:09:03;18.60;;;12.90;;
11500;SDS011;5807;51.606;7.624;2022-09-12T05:11:32;18.13;;;12.40;;
11500;SDS011;5807;51.606;7.624;2022-09-12T05:14:02;18.37;;;13.13;;
11500;SDS011;5807;51.606;7.624;2022-09-12T05:16:29;21.40;;;14.07;;
11500;SDS011;5807;51.606;7.624;2022-09-12T05:18:57;19.07;;;13.50;;
11500;SDS011;5807;51.606;7.624;2022-09-12T05:21:25;20.23;;;13.53;;
11500;SDS011;5807;51.606;7.624;2022-09-12T05:23:52;19.63;;;13.77;;
11500;SDS011;5807;51.606;7.624;2022-09-12T05:26:20;17.83;;;13.57;;
11500;SDS011;5807;51.606;7.624;2022-09-12T05:28:49;18.57;;;12.97;;
11500;SDS011;5807;51.606;7.624;2022-09-12T05:31:18;17.80;;;12.80;;
11500;SDS011;5807;51.606;7.624;2022-09-12T05:33:46;17.83;;;13.13;;
11500;SDS011;5807;51.606;7.624;2022-09-12T05:36:14;19.03;;;13.33;;
11500;SDS011;5807;51.606;7.624;2022-09-12T05:38:42;19.03;;;12.87;;
11500;SDS011;5807;51.606;7.624;2022-09-12T05:41:10;17.67;;;13.07;;
11500;SDS011;5807;51.606;7.624;2022-09-12T05:43:39;21.13;;;13.53;;
11500;SDS011;5807;51.606;7.624;2022-09-12T05:46:09;23.43;;;14.33;;
11500;SDS011;5807;51.606;7.624;2022-09-12T05:48:38;18.67;;;13.57;;
11500;SDS011;5807;51.606;7.624;2022-09-12T05:51:06;17.90;;;12.97;;
11500;SDS011;5807;51.606;7.624;2022-09-12T05:53:35;21.63;;;14.10;;
11500;SDS011;5807;51.606;7.624;2022-09-12T05:56:04;19.40;;;13.57;;
11500;SDS011;5807;51.606;7.624;2022-09-12T05:58:32;22.33;;;13.97;;
11500;SDS011;5807;51.606;7.624;2022-09-12T06:01:00;19.03;;;14.27;;
11500;SDS011;5807;51.606;7.624;2022-09-12T06:03:29;22.13;;;15.27;;
11500;SDS011;5807;51.606;7.624;2022-09-12T06:05:59;21.27;;;14.57;;
11500;SDS011;5807;51.606;7.624;2022-09-12T06:08:28;21.17;;;14.63;;
11500;SDS011;5807;51.606;7.624;2022-09-12T06:10:57;21.67;;;14.67;;
11500;SDS011;5807;51.606;7.624;2022-09-12T06:13:24;21.27;;;14.87;;
11500;SDS011;5807;51.606;7.624;2022-09-12T06:15:53;19.30;;;14.27;;
11500;SDS011;5807;51.606;7.624;2022-09-12T06:18:20;22.63;;;14.80;;
11500;SDS011;5807;51.606;7.624;2022-09-12T06:20:48;22.70;;;15.87;;
11500;SDS011;5807;51.606;7.624;2022-09-12T06:23:15;23.63;;;14.97;;
11500;SDS011;5807;51.606;7.624;2022-09-12T06:25:46;18.67;;;13.83;;
11500;SDS011;5807;51.606;7.624;2022-09-12T06:28:13;23.47;;;14.87;;
11500;SDS011;5807;51.606;7.624;2022-09-12T06:30:40;20.57;;;15.67;;
11500;SDS011;5807;51.606;7.624;2022-09-12T06:33:07;21.90;;;15.43;;
11500;SDS011;5807;51.606;7.624;2022-09-12T06:35:34;21.13;;;15.60;;
11500;SDS011;5807;51.606;7.624;2022-09-12T06:38:03;26.27;;;16.70;;
11500;SDS011;5807;51.606;7.624;2022-09-12T06:40:31;20.67;;;14.73;;
11500;SDS011;5807;51.606;7.624;2022-09-12T06:42:58;27.80;;;17.27;;
11500;SDS011;5807;51.606;7.624;2022-09-12T06:45:25;19.00;;;15.23;;
11500;SDS011;5807;51.606;7.624;2022-09-12T06:47:52;17.53;;;14.70;;
11500;SDS011;5807;51.606;7.624;2022-09-12T06:50:20;14.40;;;12.43;;
11500;SDS011;5807;51.606;7.624;2022-09-12T06:52:47;15.33;;;12.27;;
11500;SDS011;5807;51.606;7.624;2022-09-12T06:55:16;12.27;;;10.93;;
11500;SDS011;5807;51.606;7.624;2022-09-12T06:57:43;11.83;;;10.63;;
11500;SDS011;5807;51.606;7.624;2022-09-12T07:02:40;10.80;;;9.70;;
11500;SDS011;5807;51.606;7.624;2022-09-12T07:05:07;9.33;;;8.53;;
11500;SDS011;5807;51.606;7.624;2022-09-12T07:07:35;9.47;;;8.67;;
11500;SDS011;5807;51.606;7.624;2022-09-12T07:10:02;9.70;;;8.53;;
11500;SDS011;5807;51.606;7.624;2022-09-12T07:12:31;10.03;;;9.00;;
11500;SDS011;5807;51.606;7.624;2022-09-12T07:14:58;9.13;;;8.23;;
11500;SDS011;5807;51.606;7.624;2022-09-12T07:17:25;8.97;;;8.17;;
11500;SDS011;5807;51.606;7.624;2022-09-12T07:19:52;9.83;;;8.93;;
11500;SDS011;5807;51.606;7.624;2022-09-12T07:22:19;9.90;;;8.90;;
11500;SDS011;5807;51.606;7.624;2022-09-12T07:24:45;10.83;;;9.03;;
11500;SDS011;5807;51.606;7.624;2022-09-12T07:27:12;10.73;;;9.03;;
11500;SDS011;5807;51.606;7.624;2022-09-12T07:29:41;11.77;;;10.07;;
11500;SDS011;5807;51.606;7.624;2022-09-12T07:32:08;11.17;;;10.07;;
11500;SDS011;5807;51.606;7.624;2022-09-12T07:34:36;11.03;;;9.93;;
11500;SDS011;5807;51.606;7.624;2022-09-12T07:37:03;10.57;;;8.90;;
11500;SDS011;5807;51.606;7.624;2022-09-12T07:39:29;11.63;;;9.07;;
11500;SDS011;5807;51.606;7.624;2022-09-12T07:41:56;10.77;;;9.50;;
11500;SDS011;5807;51.606;7.624;2022-09-12T07:44:24;11.03;;;9.53;;
11500;SDS011;5807;51.606;7.624;2022-09-12T07:46:52;12.07;;;9.77;;
11500;SDS011;5807;51.606;7.624;2022-09-12T07:49:19;13.40;;;9.33;;
11500;SDS011;5807;51.606;7.624;2022-09-12T07:51:46;11.30;;;9.30;;
11500;SDS011;5807;51.606;7.624;2022-09-12T07:54:13;9.80;;;8.90;;
11500;SDS011;5807;51.606;7.624;2022-09-12T07:56:40;10.70;;;8.20;;
11500;SDS011;5807;51.606;7.624;2022-09-12T07:59:07;11.73;;;9.87;;
11500;SDS011;5807;51.606;7.624;2022-09-12T08:01:34;9.87;;;8.97;;
11500;SDS011;5807;51.606;7.624;2022-09-12T08:04:02;12.27;;;9.43;;
11500;SDS011;5807;51.606;7.624;2022-09-12T08:06:29;10.17;;;9.10;;
11500;SDS011;5807;51.606;7.624;2022-09-12T08:09:00;10.77;;;9.60;;
11500;SDS011;5807;51.606;7.624;2022-09-12T08:11:27;11.40;;;9.00;;
11500;SDS011;5807;51.606;7.624;2022-09-12T08:13:55;9.93;;;8.90;;
11500;SDS011;5807;51.606;7.624;2022-09-12T08:16:23;10.30;;;9.20;;
11500;SDS011;5807;51.606;7.624;2022-09-12T08:18:51;10.50;;;9.40;;
11500;SDS011;5807;51.606;7.624;2022-09-12T08:21:20;10.63;;;9.30;;
11500;SDS011;5807;51.606;7.624;2022-09-12T08:23:51;11.33;;;9.43;;
11500;SDS011;5807;51.606;7.624;2022-09-12T08:26:19;12.90;;;10.83;;
11500;SDS011;5807;51.606;7.624;2022-09-12T08:28:46;11.90;;;10.20;;
11500;SDS011;5807;51.606;7.624;2022-09-12T08:31:13;14.07;;;10.97;;
11500;SDS011;5807;51.606;7.624;2022-09-12T08:33:41;14.00;;;10.23;;
11500;SDS011;5807;51.606;7.624;2022-09-12T08:36:09;12.40;;;9.93;;
11500;SDS011;5807;51.606;7.624;2022-09-12T08:38:39;11.73;;;10.27;;
11500;SDS011;5807;51.606;7.624;2022-09-12T08:41:08;15.03;;;8.77;;
11500;SDS011;5807;51.606;7.624;2022-09-12T08:43:43;10.73;;;9.63;;
11500;SDS011;5807;51.606;7.624;2022-09-12T08:46:30;11.57;;;9.00;;
11500;SDS011;5807;51.606;7.624;2022-09-12T08:49:01;11.37;;;8.77;;
11500;SDS011;5807;51.606;7.624;2022-09-12T08:51:31;11.20;;;8.67;;
11500;SDS011;5807;51.606;7.624;2022-09-12T08:54:01;9.90;;;8.90;;
11500;SDS011;5807;51.606;7.624;2022-09-12T08:56:31;11.93;;;8.87;;
11500;SDS011;5807;51.606;7.624;2022-09-12T08:59:01;11.23;;;8.93;;
11500;SDS011;5807;51.606;7.624;2022-09-12T09:01:29;11.93;;;7.83;;
11500;SDS011;5807;51.606;7.624;2022-09-12T09:04:12;8.57;;;7.47;;
11500;SDS011;5807;51.606;7.624;2022-09-12T09:06:50;13.83;;;8.80;;
11500;SDS011;5807;51.606;7.624;2022-09-12T09:09:33;13.53;;;9.20;;
11500;SDS011;5807;51.606;7.624;2022-09-12T09:12:11;11.17;;;8.30;;
11500;SDS011;5807;51.606;7.624;2022-09-12T09:17:39;8.70;;;7.50;;
11500;SDS011;5807;51.606;7.624;2022-09-12T09:20:21;8.97;;;7.60;;
11500;SDS011;5807;51.606;7.624;2022-09-12T09:22:54;8.50;;;7.57;;
11500;SDS011;5807;51.606;7.624;2022-09-12T09:25:39;10.17;;;7.80;;
11500;SDS011;5807;51.606;7.624;2022-09-12T09:28:12;9.13;;;7.17;;
11500;SDS011;5807;51.606;7.624;2022-09-12T09:30:44;7.57;;;6.77;;
11500;SDS011;5807;51.606;7.624;2022-09-12T09:33:14;8.57;;;6.73;;
11500;SDS011;5807;51.606;7.624;2022-09-12T09:35:47;10.00;;;7.53;;
11500;SDS011;5807;51.606;7.624;2022-09-12T09:38:24;8.03;;;7.33;;
11500;SDS011;5807;51.606;7.624;2022-09-12T09:41:04;9.27;;;6.90;;
11500;SDS011;5807;51.606;7.624;2022-09-12T09:43:44;15.33;;;7.03;;
11500;SDS011;5807;51.606;7.624;2022-09-12T09:46:11;8.53;;;6.53;;
11500;SDS011;5807;51.606;7.624;2022-09-12T09:48:39;8.97;;;6.57;;
11500;SDS011;5807;51.606;7.624;2022-09-12T09:51:09;7.17;;;6.37;;
11500;SDS011;5807;51.606;7.624;2022-09-12T09:53:40;10.00;;;6.43;;
11500;SDS011;5807;51.606;7.624;2022-09-12T09:56:14;7.40;;;6.67;;
11500;SDS011;5807;51.606;7.624;2022-09-12T09:58:53;8.37;;;6.97;;
11500;SDS011;5807;51.606;7.624;2022-09-12T10:01:20;8.50;;;6.87;;
11500;SDS011;5807;51.606;7.624;2022-09-12T10:03:47;10.13;;;7.37;;
11500;SDS011;5807;51.606;7.624;2022-09-12T10:06:24;9.50;;;7.20;;
11500;SDS011;5807;51.606;7.624;2022-09-12T10:09:03;7.40;;;6.67;;
11500;SDS011;5807;51.606;7.624;2022-09-12T10:11:34;9.37;;;6.97;;
11500;SDS011;5807;51.606;7.624;2022-09-12T10:14:03;8.53;;;6.33;;
11500;SDS011;5807;51.606;7.624;2022-09-12T10:16:30;9.33;;;6.80;;
11500;SDS011;5807;51.606;7.624;2022-09-12T10:18:59;6.63;;;5.63;;
11500;SDS011;5807;51.606;7.624;2022-09-12T10:21:28;5.73;;;5.13;;
11500;SDS011;5807;51.606;7.624;2022-09-12T10:24:13;5.80;;;5.20;;
11500;SDS011;5807;51.606;7.624;2022-09-12T10:26:48;5.97;;;5.47;;
11500;SDS011;5807;51.606;7.624;2022-09-12T10:29:20;6.40;;;5.40;;
11500;SDS011;5807;51.606;7.624;2022-09-12T10:31:51;6.63;;;4.87;;
11500;SDS011;5807;51.606;7.624;2022-09-12T10:34:24;5.47;;;5.00;;
11500;SDS011;5807;51.606;7.624;2022-09-12T10:37:00;4.53;;;4.23;;
11500;SDS011;5807;51.606;7.624;2022-09-12T10:39:30;5.63;;;4.87;;
11500;SDS011;5807;51.606;7.624;2022-09-12T10:42:01;5.97;;;5.37;;
11500;SDS011;5807;51.606;7.624;2022-09-12T10:44:30;5.53;;;5.03;;
11500;SDS011;5807;51.606;7.624;2022-09-12T10:46:58;5.77;;;5.27;;
11500;SDS011;5807;51.606;7.624;2022-09-12T10:49:44;5.63;;;4.97;;
11500;SDS011;5807;51.606;7.624;2022-09-12T10:52:15;6.47;;;4.50;;
11500;SDS011;5807;51.606;7.624;2022-09-12T10:54:45;4.70;;;4.20;;
11500;SDS011;5807;51.606;7.624;2022-09-12T10:57:19;5.93;;;4.37;;
11500;SDS011;5807;51.606;7.624;2022-09-12T11:00:06;4.93;;;4.53;;
11500;SDS011;5807;51.606;7.624;2022-09-12T11:02:43;4.00;;;3.70;;
11500;SDS011;5807;51.606;7.624;2022-09-12T11:05:19;5.27;;;4.30;;
11500;SDS011;5807;51.606;7.624;2022-09-12T11:07:56;5.03;;;3.90;;
11500;SDS011;5807;51.606;7.624;2022-09-12T11:10:33;4.90;;;4.50;;
11500;SDS011;5807;51.606;7.624;2022-09-12T11:13:14;4.43;;;3.90;;
11500;SDS011;5807;51.606;7.624;2022-09-12T11:15:59;4.50;;;4.10;;
11500;SDS011;5807;51.606;7.624;2022-09-12T11:18:41;4.83;;;4.43;;
11500;SDS011;5807;51.606;7.624;2022-09-12T11:21:25;4.60;;;4.20;;
11500;SDS011;5807;51.606;7.624;2022-09-12T11:27:22;4.80;;;4.33;;
11500;SDS011;5807;51.606;7.624;2022-09-12T11:30:02;5.53;;;4.23;;
11500;SDS011;5807;51.606;7.624;2022-09-12T11:32:39;5.43;;;4.57;;
11500;SDS011;5807;51.606;7.624;2022-09-12T11:35:18;4.70;;;4.33;;
11500;SDS011;5807;51.606;7.624;2022-09-12T11:37:52;5.70;;;4.60;;
11500;SDS011;5807;51.606;7.624;2022-09-12T11:40:30;4.77;;;4.07;;
11500;SDS011;5807;51.606;7.624;2022-09-12T11:43:04;5.70;;;3.93;;
11500;SDS011;5807;51.606;7.624;2022-09-12T11:45:40;4.97;;;4.10;;
11500;SDS011;5807;51.606;7.624;2022-09-12T11:48:10;3.80;;;3.50;;
11500;SDS011;5807;51.606;7.624;2022-09-12T11:50:43;4.07;;;3.77;;
11500;SDS011;5807;51.606;7.624;2022-09-12T11:53:10;4.63;;;3.90;;
11500;SDS011;5807;51.606;7.624;2022-09-12T11:55:46;4.60;;;4.20;;
11500;SDS011;5807;51.606;7.624;2022-09-12T11:58:17;4.13;;;3.73;;
11500;SDS011;5807;51.606;7.624;2022-09-12T12:00:50;5.57;;;4.07;;
11500;SDS011;5807;51.606;7.624;2022-09-12T12:03:22;4.27;;;3.87;;
11500;SDS011;5807;51.606;7.624;2022-09-12T12:05:56;4.07;;;3.63;;
11500;SDS011;5807;51.606;7.624;2022-09-12T12:08:29;3.37;;;3.17;;
11500;SDS011;5807;51.606;7.624;2022-09-12T12:10:58;3.30;;;3.00;;
11500;SDS011;5807;51.606;7.624;2022-09-12T12:13:27;3.97;;;3.60;;
11500;SDS011;5807;51.606;7.624;2022-09-12T12:16:00;5.50;;;3.40;;
11500;SDS011;5807;51.606;7.624;2022-09-12T12:18:31;3.43;;;3.20;;
11500;SDS011;5807;51.606;7.624;2022-09-12T12:21:17;3.33;;;3.00;;
11500;SDS011;5807;51.606;7.624;2022-09-12T12:24:00;3.57;;;3.27;;
11500;SDS011;5807;51.606;7.624;2022-09-12T12:26:43;3.63;;;3.33;;
11500;SDS011;5807;51.606;7.624;2022-09-12T12:29:38;3.10;;;2.90;;
11500;SDS011;5807;51.606;7.624;2022-09-12T12:32:23;3.07;;;2.87;;
11500;SDS011;5807;51.606;7.624;2022-09-12T12:35:00;3.47;;;3.17;;
11500;SDS011;5807;51.606;7.624;2022-09-12T12:37:53;3.00;;;2.87;;
11500;SDS011;5807;51.606;7.624;2022-09-12T12:40:24;4.87;;;4.47;;
11500;SDS011;5807;51.606;7.624;2022-09-12T12:42:56;3.20;;;3.00;;
11500;SDS011;5807;51.606;7.624;2022-09-12T12:48:14;3.30;;;3.00;;
11500;SDS011;5807;51.606;7.624;2022-09-12T12:50:44;3.10;;;2.90;;
11500;SDS011;5807;51.606;7.624;2022-09-12T12:53:18;2.83;;;2.73;;
11500;SDS011;5807;51.606;7.624;2022-09-12T12:55:48;3.10;;;2.90;;
11500;SDS011;5807;51.606;7.624;2022-09-12T12:58:26;3.00;;;2.80;;
11500;SDS011;5807;51.606;7.624;2022-09-12T13:01:04;3.33;;;3.13;;
11500;SDS011;5807;51.606;7.624;2022-09-12T13:03:37;3.03;;;2.83;;
11500;SDS011;5807;51.606;7.624;2022-09-12T13:06:08;3.47;;;3.17;;
11500;SDS011;5807;51.606;7.624;2022-09-12T13:08:55;3.27;;;3.03;;
11500;SDS011;5807;51.606;7.624;2022-09-12T13:11:29;3.43;;;3.23;;
11500;SDS011;5807;51.606;7.624;2022-09-12T13:13:59;4.37;;;3.40;;
11500;SDS011;5807;51.606;7.624;2022-09-12T13:16:29;3.07;;;2.87;;
11500;SDS011;5807;51.606;7.624;2022-09-12T13:19:00;3.63;;;3.17;;
11500;SDS011;5807;51.606;7.624;2022-09-12T13:21:29;3.10;;;2.90;;
11500;SDS011;5807;51.606;7.624;2022-09-12T13:24:01;3.17;;;2.80;;
11500;SDS011;5807;51.606;7.624;2022-09-12T13:26:33;3.87;;;3.43;;
11500;SDS011;5807;51.606;7.624;2022-09-12T13:29:09;3.03;;;2.83;;
11500;SDS011;5807;51.606;7.624;2022-09-12T13:31:37;3.20;;;3.00;;
11500;SDS011;5807;51.606;7.624;2022-09-12T13:34:04;3.83;;;3.00;;
11500;SDS011;5807;51.606;7.624;2022-09-12T13:39:25;3.57;;;3.27;;
11500;SDS011;5807;51.606;7.624;2022-09-12T13:42:01;4.00;;;2.80;;
11500;SDS011;5807;51.606;7.624;2022-09-12T13:44:41;2.73;;;2.63;;
11500;SDS011;5807;51.606;7.624;2022-09-12T13:47:12;3.70;;;2.87;;
11500;SDS011;5807;51.606;7.624;2022-09-12T13:49:44;3.00;;;2.80;;
11500;SDS011;5807;51.606;7.624;2022-09-12T13:52:15;3.43;;;3.23;;
11500;SDS011;5807;51.606;7.624;2022-09-12T13:54:47;3.17;;;2.97;;
11500;SDS011;5807;51.606;7.624;2022-09-12T13:57:26;3.50;;;3.30;;
11500;SDS011;5807;51.606;7.624;2022-09-12T13:59:54;3.50;;;3.20;;
11500;SDS011;5807;51.606;7.624;2022-09-12T14:02:23;3.20;;;3.00;;
11500;SDS011;5807;51.606;7.624;2022-09-12T14:04:52;3.40;;;3.20;;
11500;SDS011;5807;51.606;7.624;2022-09-12T14:07:37;3.47;;;3.20;;
11500;SDS011;5807;51.606;7.624;2022-09-12T14:10:13;4.30;;;2.90;;
11500;SDS011;5807;51.606;7.624;2022-09-12T14:12:52;3.63;;;3.23;;
11500;SDS011;5807;51.606;7.624;2022-09-12T14:15:21;5.37;;;3.10;;
11500;SDS011;5807;51.606;7.624;2022-09-12T14:17:51;3.27;;;3.07;;
11500;SDS011;5807;51.606;7.624;2022-09-12T14:20:20;3.17;;;2.97;;
11500;SDS011;5807;51.606;7.624;2022-09-12T14:22:49;3.20;;;3.00;;
11500;SDS011;5807;51.606;7.624;2022-09-12T14:25:19;3.20;;;3.00;;
11500;SDS011;5807;51.606;7.624;2022-09-12T14:27:49;2.93;;;2.73;;
11500;SDS011;5807;51.606;7.624;2022-09-12T14:30:20;4.37;;;3.17;;
11500;SDS011;5807;51.606;7.624;2022-09-12T14:33:05;3.47;;;3.17;;
11500;SDS011;5807;51.606;7.624;2022-09-12T14:35:45;4.20;;;3.80;;
11500;SDS011;5807;51.606;7.624;2022-09-12T14:38:17;3.47;;;3.27;;
11500;SDS011;5807;51.606;7.624;2022-09-12T14:40:51;4.20;;;3.57;;
11500;SDS011;5807;51.606;7.624;2022-09-12T14:43:24;3.10;;;2.90;;
11500;SDS011;5807;51.606;7.624;2022-09-12T14:45:53;3.30;;;3.10;;
11500;SDS011;5807;51.606;7.624;2022-09-12T14:48:23;3.20;;;2.90;;
11500;SDS011;5807;51.606;7.624;2022-09-12T14:50:52;2.93;;;2.73;;
11500;SDS011;5807;51.606;7.624;2022-09-12T14:53:20;3.33;;;3.13;;
11500;SDS011;5807;51.606;7.624;2022-09-12T14:55:52;3.70;;;3.27;;
11500;SDS011;5807;51.606;7.624;2022-09-12T14:58:24;3.40;;;3.10;;
11500;SDS011;5807;51.606;7.624;2022-09-12T15:00:56;3.47;;;3.17;;
11500;SDS011;5807;51.606;7.624;2022-09-12T15:03:47;3.60;;;3.30;;
11500;SDS011;5807;51.606;7.624;2022-09-12T15:06:26;3.87;;;3.57;;
11500;SDS011;5807;51.606;7.624;2022-09-12T15:11:46;3.47;;;3.17;;
11500;SDS011;5807;51.606;7.624;2022-09-12T15:14:26;3.40;;;3.10;;
11500;SDS011;5807;51.606;7.624;2022-09-12T15:16:53;3.63;;;3.30;;
11500;SDS011;5807;51.606;7.624;2022-09-12T15:19:19;3.27;;;2.97;;
11500;SDS011;5807;51.606;7.624;2022-09-12T15:21:46;3.70;;;3.40;;
11500;SDS011;5807;51.606;7.624;2022-09-12T15:24:13;6.80;;;3.13;;
11500;SDS011;5807;51.606;7.624;2022-09-12T15:26:40;3.17;;;2.97;;
11500;SDS011;5807;51.606;7.624;2022-09-12T15:29:08;3.20;;;3.00;;
11500;SDS011;5807;51.606;7.624;2022-09-12T15:31:38;3.20;;;3.00;;
11500;SDS011;5807;51.606;7.624;2022-09-12T15:34:05;3.90;;;3.63;;
11500;SDS011;5807;51.606;7.624;2022-09-12T15:36:32;2.97;;;2.80;;
11500;SDS011;5807;51.606;7.624;2022-09-12T15:38:59;4.97;;;3.50;;
11500;SDS011;5807;51.606;7.624;2022-09-12T15:44:10;3.57;;;3.30;;
11500;SDS011;5807;51.606;7.624;2022-09-12T15:46:38;3.20;;;2.97;;